Time;durP1;ratioP1;P1;durP2;ratioP2;P2;SDS_P1;SDS_P2;PMS_P1;PMS_P2;Temp;Humidity;BMP_temperature;BMP_pressure;BME280_temperature;BME280_humidity;BME280_pressure;Samples;Min_cycle;Max_cycle;Signal;HPM_P1;HPM_P2
2023/10/07 00:00:47;;;;;;;16.15;4.22;;;17.40;99.90;;;;;;5052425;28;20045;-74
2023/10/07 00:03:15;;;;;;;12.18;3.88;;;17.40;99.90;;;;;;5053075;28;20082;-74
2023/10/07 00:05:42;;;;;;;16.98;4.07;;;17.40;99.90;;;;;;5036271;28;20041;-75
2023/10/07 00:08:12;;;;;;;16.50;4.28;;;17.40;99.90;;;;;;5052706;28;20068;-74
2023/10/07 00:10:39;;;;;;;14.05;3.83;;;17.40;99.90;;;;;;5052888;28;20116;-75
2023/10/07 00:13:10;;;;;;;18.88;4.65;;;17.40;99.90;;;;;;5052794;28;20053;-73
2023/10/07 00:15:42;;;;;;;15.63;3.97;;;17.40;99.90;;;;;;5051691;28;20041;-75
2023/10/07 00:18:13;;;;;;;16.75;4.20;;;17.40;99.90;;;;;;5051324;28;20184;-73
2023/10/07 00:20:56;;;;;;;14.65;4.75;;;17.40;99.90;;;;;;5035355;28;20036;-74
2023/10/07 00:23:26;;;;;;;18.20;4.22;;;17.40;99.90;;;;;;5052531;28;20033;-74
2023/10/07 00:25:53;;;;;;;13.48;3.78;;;17.40;99.90;;;;;;5052525;28;20080;-76
2023/10/07 00:28:32;;;;;;;16.45;3.85;;;17.40;99.90;;;;;;5051948;28;20081;-74
2023/10/07 00:31:02;;;;;;;16.02;4.38;;;17.40;99.90;;;;;;5052188;28;20116;-74
2023/10/07 00:33:30;;;;;;;17.35;4.30;;;17.40;99.90;;;;;;5052237;28;20049;-75
2023/10/07 00:36:01;;;;;;;13.15;3.60;;;17.40;99.90;;;;;;5052320;28;20033;-75
2023/10/07 00:38:37;;;;;;;15.23;4.20;;;17.40;99.90;;;;;;5051623;28;20068;-75
2023/10/07 00:41:03;;;;;;;13.68;3.97;;;17.40;99.90;;;;;;5052139;28;20500;-75
2023/10/07 00:43:32;;;;;;;13.88;4.70;;;17.40;99.90;;;;;;5052026;28;20048;-74
2023/10/07 00:46:10;;;;;;;17.77;4.35;;;17.30;99.90;;;;;;5052210;28;20421;-75
2023/10/07 00:48:47;;;;;;;13.30;4.30;;;17.40;99.90;;;;;;5051600;28;20045;-75
2023/10/07 00:51:17;;;;;;;13.18;4.00;;;17.30;99.90;;;;;;5051479;28;20119;-74
2023/10/07 00:53:45;;;;;;;16.50;4.63;;;17.30;99.90;;;;;;5051398;28;20131;-74
2023/10/07 00:56:13;;;;;;;16.25;4.53;;;17.30;99.90;;;;;;5050795;28;20119;-73
2023/10/07 00:58:41;;;;;;;14.85;4.47;;;17.30;99.90;;;;;;5033880;28;20159;-75
2023/10/07 01:01:09;;;;;;;13.45;4.32;;;17.20;99.90;;;;;;5051965;28;20041;-74
2023/10/07 01:03:47;;;;;;;14.32;4.15;;;17.20;99.90;;;;;;5051797;28;20143;-75
2023/10/07 01:06:22;;;;;;;17.70;5.05;;;17.10;99.90;;;;;;5051314;28;20037;-75
2023/10/07 01:08:55;;;;;;;15.77;4.35;;;17.10;99.90;;;;;;5051427;28;20080;-76
2023/10/07 01:11:23;;;;;;;15.85;4.65;;;17.00;99.90;;;;;;5051510;28;20122;-76
2023/10/07 01:13:50;;;;;;;13.48;4.68;;;17.00;99.90;;;;;;5051358;28;20574;-75
2023/10/07 01:16:31;;;;;;;19.55;5.00;;;17.00;99.90;;;;;;5051376;28;20049;-75
2023/10/07 01:21:55;;;;;;;14.65;4.85;;;16.90;99.90;;;;;;5051284;28;20259;-76
2023/10/07 01:24:34;;;;;;;15.25;4.68;;;16.90;99.90;;;;;;5050282;28;20052;-76
2023/10/07 01:27:06;;;;;;;12.40;4.40;;;16.90;99.90;;;;;;5051037;28;20098;-76
2023/10/07 01:29:34;;;;;;;16.48;4.47;;;16.90;99.90;;;;;;5051165;28;20432;-77
2023/10/07 01:31:59;;;;;;;12.65;4.05;;;16.90;99.90;;;;;;5051200;28;20044;-76
2023/10/07 01:34:30;;;;;;;13.50;3.90;;;16.90;99.90;;;;;;5051172;28;20045;-76
2023/10/07 01:36:57;;;;;;;14.60;4.40;;;16.90;99.90;;;;;;5051353;28;20400;-75
2023/10/07 01:39:24;;;;;;;16.15;4.38;;;16.90;99.90;;;;;;5050500;28;20067;-75
2023/10/07 01:41:50;;;;;;;17.42;4.50;;;16.90;99.90;;;;;;5050820;28;20037;-75
2023/10/07 01:44:15;;;;;;;14.43;4.47;;;16.90;99.90;;;;;;5050895;28;20116;-75
2023/10/07 01:46:43;;;;;;;13.73;3.85;;;16.90;99.90;;;;;;5051065;28;20033;-76
2023/10/07 01:49:12;;;;;;;12.48;4.32;;;16.90;99.90;;;;;;5050692;28;20635;-76
2023/10/07 01:51:43;;;;;;;11.45;4.10;;;17.00;99.90;;;;;;5050913;28;20831;-75
2023/10/07 01:54:11;;;;;;;13.45;3.80;;;17.00;99.90;;;;;;5051048;28;20087;-76
2023/10/07 01:56:38;;;;;;;12.90;3.50;;;17.00;99.90;;;;;;5050543;28;20086;-76
2023/10/07 02:01:41;;;;;;;14.05;3.90;;;17.10;99.90;;;;;;5050802;28;20052;-74
2023/10/07 02:04:16;;;;;;;14.52;4.13;;;17.10;99.90;;;;;;5050719;28;20052;-75
2023/10/07 02:06:51;;;;;;;19.35;4.38;;;17.20;99.90;;;;;;5050501;28;20033;-76
2023/10/07 02:09:27;;;;;;;17.23;4.00;;;17.20;99.90;;;;;;5050091;28;20094;-75
2023/10/07 02:11:54;;;;;;;15.27;3.83;;;17.20;99.90;;;;;;5050361;28;20070;-76
2023/10/07 02:14:24;;;;;;;13.18;3.78;;;17.20;99.90;;;;;;5050264;28;20087;-75
2023/10/07 02:16:51;;;;;;;16.10;3.75;;;17.20;99.90;;;;;;5049670;28;20052;-75
2023/10/07 02:19:27;;;;;;;14.85;3.53;;;17.30;99.90;;;;;;5049820;28;20048;-76
2023/10/07 02:21:59;;;;;;;15.80;3.88;;;17.30;99.90;;;;;;5050474;28;20044;-75
2023/10/07 02:24:29;;;;;;;12.20;3.50;;;17.30;99.90;;;;;;5050352;28;20049;-76
2023/10/07 02:27:00;;;;;;;17.02;4.38;;;17.30;99.90;;;;;;5050067;28;20041;-75
2023/10/07 02:29:28;;;;;;;14.13;3.85;;;17.30;99.90;;;;;;5033486;28;20369;-73
2023/10/07 02:32:05;;;;;;;12.75;3.47;;;17.40;99.90;;;;;;5050002;28;20047;-75
2023/10/07 02:34:33;;;;;;;16.85;3.50;;;17.40;99.90;;;;;;5033514;28;20040;-74
2023/10/07 02:37:11;;;;;;;13.77;3.80;;;17.40;99.90;;;;;;5049912;28;20048;-73
2023/10/07 02:39:46;;;;;;;15.35;3.90;;;17.40;99.90;;;;;;5049845;28;20041;-74
2023/10/07 02:42:21;;;;;;;11.10;3.70;;;17.40;99.90;;;;;;5049875;28;20041;-75
2023/10/07 02:44:51;;;;;;;9.85;3.42;;;17.40;99.90;;;;;;5049934;28;20036;-75
2023/10/07 02:47:18;;;;;;;10.43;3.45;;;17.40;99.90;;;;;;5049599;28;20044;-75
2023/10/07 02:49:49;;;;;;;18.27;4.15;;;17.40;99.90;;;;;;5049579;28;20103;-74
2023/10/07 02:52:16;;;;;;;14.15;3.83;;;17.40;99.90;;;;;;5049973;28;20079;-76
2023/10/07 02:54:43;;;;;;;11.02;3.17;;;17.40;99.90;;;;;;5033506;28;20381;-74
2023/10/07 02:57:21;;;;;;;14.20;3.88;;;17.40;99.90;;;;;;5049616;28;20389;-74
2023/10/07 03:00:00;;;;;;;13.45;3.53;;;17.40;99.90;;;;;;5048479;28;20049;-74
2023/10/07 03:02:37;;;;;;;12.77;3.72;;;17.40;99.90;;;;;;5048109;28;20044;-74
2023/10/07 03:07:41;;;;;;;9.38;3.78;;;17.40;99.90;;;;;;5049644;28;20044;-74
2023/10/07 03:10:29;;;;;;;16.83;4.13;;;17.40;99.90;;;;;;5049479;28;20098;-74
2023/10/07 03:12:58;;;;;;;12.55;4.07;;;17.40;99.90;;;;;;5049633;28;20048;-74
2023/10/07 03:17:59;;;;;;;12.48;3.63;;;17.40;99.90;;;;;;5049909;28;20048;-74
2023/10/07 03:20:28;;;;;;;18.40;3.63;;;17.40;99.90;;;;;;5049291;28;20047;-74
2023/10/07 03:23:13;;;;;;;15.95;4.15;;;17.40;99.90;;;;;;5048826;28;20029;-75
2023/10/07 03:28:16;;;;;;;20.50;4.05;;;17.40;99.90;;;;;;5049888;28;20072;-74
2023/10/07 03:30:47;;;;;;;10.77;3.67;;;17.40;99.90;;;;;;5053438;28;20068;-75
2023/10/07 03:33:15;;;;;;;12.98;3.58;;;17.30;99.90;;;;;;5053536;28;20124;-74
2023/10/07 03:38:25;;;;;;;13.50;3.35;;;17.40;99.90;;;;;;5053079;28;20053;-75
2023/10/07 03:40:55;;;;;;;17.95;3.92;;;17.40;99.90;;;;;;5053610;28;20392;-74
2023/10/07 03:43:27;;;;;;;12.77;3.33;;;17.40;99.90;;;;;;5054700;28;20033;-75
2023/10/07 03:45:57;;;;;;;13.02;3.70;;;17.40;99.90;;;;;;5053198;28;20132;-75
2023/10/07 03:48:23;;;;;;;17.30;3.72;;;17.30;99.90;;;;;;5052645;28;20036;-75
2023/10/07 03:51:06;;;;;;;13.40;3.38;;;17.30;99.90;;;;;;5053118;28;20052;-75
2023/10/07 03:53:45;;;;;;;16.92;3.45;;;17.30;99.90;;;;;;5053369;28;20037;-74
2023/10/07 03:56:12;;;;;;;18.02;3.85;;;17.40;99.90;;;;;;5052870;28;20044;-76
2023/10/07 03:58:41;;;;;;;17.15;3.72;;;17.30;99.90;;;;;;5052897;28;20463;-75
2023/10/07 04:01:16;;;;;;;15.30;3.60;;;17.40;99.90;;;;;;5052841;28;20076;-75
2023/10/07 04:03:52;;;;;;;12.40;3.60;;;17.40;99.90;;;;;;5052871;28;20041;-75
2023/10/07 04:06:20;;;;;;;12.45;3.58;;;17.40;99.90;;;;;;5052739;28;20045;-75
2023/10/07 04:08:52;;;;;;;16.58;3.53;;;17.40;99.90;;;;;;5052470;28;20122;-74
2023/10/07 04:11:28;;;;;;;13.13;3.33;;;17.40;99.90;;;;;;5052750;28;20048;-75
2023/10/07 04:13:55;;;;;;;10.15;3.05;;;17.40;99.90;;;;;;5052908;28;20067;-75
2023/10/07 04:16:24;;;;;;;13.15;3.42;;;17.40;99.90;;;;;;5052601;28;20114;-73
2023/10/07 04:19:09;;;;;;;16.50;3.22;;;17.40;99.90;;;;;;5052358;28;20048;-76
2023/10/07 04:21:41;;;;;;;14.48;3.78;;;17.40;99.90;;;;;;5052501;28;20036;-75
2023/10/07 04:24:11;;;;;;;14.27;3.45;;;17.40;99.90;;;;;;5052420;28;20119;-74
2023/10/07 04:26:39;;;;;;;12.32;3.20;;;17.40;99.90;;;;;;5052528;28;20071;-75
2023/10/07 04:29:08;;;;;;;14.95;4.22;;;17.30;99.90;;;;;;5052001;28;20134;-75
2023/10/07 04:31:37;;;;;;;13.50;3.70;;;17.30;99.90;;;;;;5052869;28;20396;-74
2023/10/07 04:34:15;;;;;;;15.55;3.65;;;17.30;99.90;;;;;;5052189;28;20076;-75
2023/10/07 04:39:28;;;;;;;13.65;3.50;;;17.40;99.90;;;;;;5051625;28;20044;-74
2023/10/07 04:41:59;;;;;;;14.32;3.38;;;17.40;99.90;;;;;;5051704;28;20095;-75
2023/10/07 04:47:34;;;;;;;11.90;3.08;;;17.40;99.90;;;;;;5052173;28;20408;-75
2023/10/07 04:50:07;;;;;;;9.52;3.30;;;17.30;99.90;;;;;;5051726;28;20045;-75
2023/10/07 04:52:39;;;;;;;15.55;4.10;;;17.30;99.90;;;;;;5051997;28;20459;-75
2023/10/07 04:55:11;;;;;;;13.90;3.50;;;17.30;99.90;;;;;;5052173;28;20519;-74
2023/10/07 04:57:44;;;;;;;16.70;3.88;;;17.40;99.90;;;;;;5051793;28;20282;-74
2023/10/07 05:00:28;;;;;;;14.00;3.35;;;17.30;99.90;;;;;;5051529;28;20385;-75
2023/10/07 05:02:59;;;;;;;11.68;3.67;;;17.30;99.90;;;;;;5051701;28;20404;-75
2023/10/07 05:05:28;;;;;;;14.05;3.58;;;17.30;99.90;;;;;;5050587;28;20045;-76
2023/10/07 05:07:56;;;;;;;18.45;4.07;;;17.30;99.90;;;;;;5050014;28;20068;-75
2023/10/07 05:10:23;;;;;;;18.35;4.03;;;17.30;99.90;;;;;;5050503;28;20049;-75
2023/10/07 05:12:51;;;;;;;12.25;4.13;;;17.30;99.90;;;;;;5051425;28;20041;-75
2023/10/07 05:15:18;;;;;;;18.73;4.32;;;17.30;99.90;;;;;;5051636;28;20045;-75
2023/10/07 05:17:43;;;;;;;15.50;3.67;;;17.30;99.90;;;;;;5051041;28;20627;-75
2023/10/07 05:20:26;;;;;;;13.00;3.67;;;17.30;99.90;;;;;;5051077;28;20040;-75
2023/10/07 05:22:55;;;;;;;9.90;2.97;;;17.30;99.90;;;;;;5052914;28;20447;-75
2023/10/07 05:25:21;;;;;;;11.73;3.40;;;17.30;99.90;;;;;;5051606;28;20052;-76
2023/10/07 05:27:48;;;;;;;17.48;3.85;;;17.30;99.90;;;;;;5051330;28;20318;-75
2023/10/07 05:30:16;;;;;;;17.58;3.50;;;17.20;99.90;;;;;;5050900;28;20048;-74
2023/10/07 05:32:42;;;;;;;12.80;3.75;;;17.30;99.90;;;;;;5051338;28;20122;-76
2023/10/07 05:35:08;;;;;;;10.48;3.15;;;17.20;99.90;;;;;;5051156;28;20091;-75
2023/10/07 05:37:33;;;;;;;10.23;2.90;;;17.20;99.90;;;;;;5049600;28;20045;-76
2023/10/07 05:39:59;;;;;;;15.43;3.80;;;17.20;99.90;;;;;;5050770;28;20049;-75
2023/10/07 05:42:25;;;;;;;14.52;3.42;;;17.20;99.90;;;;;;5050905;28;20033;-75
2023/10/07 05:44:52;;;;;;;12.55;3.47;;;17.20;99.90;;;;;;5049449;28;20492;-74
2023/10/07 05:47:18;;;;;;;11.50;2.88;;;17.20;99.90;;;;;;5048838;28;20124;-74
2023/10/07 05:49:43;;;;;;;11.40;3.33;;;17.20;99.90;;;;;;5050654;28;20128;-73
2023/10/07 05:52:09;;;;;;;12.73;3.28;;;17.20;99.90;;;;;;5033543;28;20055;-76
2023/10/07 05:54:35;;;;;;;12.50;2.78;;;17.20;99.90;;;;;;5050620;28;20041;-75
2023/10/07 05:57:05;;;;;;;13.13;2.97;;;17.20;99.90;;;;;;5051889;28;20116;-74
2023/10/07 05:59:33;;;;;;;10.82;2.65;;;17.20;99.90;;;;;;5050188;28;20037;-74
2023/10/07 06:02:05;;;;;;;11.65;3.30;;;17.20;99.90;;;;;;5034042;28;20043;-75
2023/10/07 06:04:31;;;;;;;14.50;3.08;;;17.20;99.90;;;;;;5050516;28;20044;-75
2023/10/07 06:06:57;;;;;;;12.00;3.47;;;17.20;99.90;;;;;;5050558;28;20049;-75
2023/10/07 06:09:22;;;;;;;14.00;3.30;;;17.10;99.90;;;;;;5050315;28;20124;-75
2023/10/07 06:11:48;;;;;;;15.25;3.50;;;17.10;99.90;;;;;;5050329;28;20052;-75
2023/10/07 06:14:17;;;;;;;13.57;3.40;;;17.10;99.90;;;;;;5050384;28;20048;-75
2023/10/07 06:16:44;;;;;;;11.80;3.08;;;17.00;99.90;;;;;;5050316;28;20040;-75
2023/10/07 06:19:13;;;;;;;14.32;3.33;;;17.00;99.90;;;;;;5049864;28;20570;-75
2023/10/07 06:21:50;;;;;;;12.93;3.05;;;17.00;99.90;;;;;;5050200;28;20129;-75
2023/10/07 06:24:26;;;;;;;11.65;3.28;;;17.00;99.90;;;;;;5050222;28;20037;-75
2023/10/07 06:26:55;;;;;;;11.48;3.15;;;17.00;99.90;;;;;;5050178;28;20048;-75
2023/10/07 06:29:21;;;;;;;12.38;3.33;;;17.00;99.90;;;;;;5050126;28;20139;-75
2023/10/07 06:31:55;;;;;;;10.55;3.50;;;17.00;99.90;;;;;;5048451;28;20119;-74
2023/10/07 06:34:25;;;;;;;12.30;3.13;;;17.00;99.90;;;;;;5049986;28;20045;-75
2023/10/07 06:36:52;;;;;;;10.15;2.88;;;17.00;99.90;;;;;;5049948;28;20072;-75
2023/10/07 06:39:27;;;;;;;11.50;3.05;;;17.00;99.90;;;;;;5049677;28;20045;-75
2023/10/07 06:41:54;;;;;;;10.50;2.88;;;17.10;99.90;;;;;;5050320;28;20500;-75
2023/10/07 06:44:19;;;;;;;12.23;3.10;;;17.10;99.90;;;;;;5033178;28;20075;-75
2023/10/07 06:46:46;;;;;;;16.38;3.35;;;17.10;99.90;;;;;;5049735;28;20072;-75
2023/10/07 06:49:19;;;;;;;9.80;3.10;;;17.10;99.90;;;;;;5049444;28;20067;-75
2023/10/07 06:51:52;;;;;;;11.68;3.10;;;17.20;99.90;;;;;;5049730;28;20049;-76
2023/10/07 06:54:18;;;;;;;11.95;3.33;;;17.10;99.90;;;;;;5049814;28;20051;-75
2023/10/07 06:56:45;;;;;;;12.48;3.50;;;17.10;99.90;;;;;;5049801;28;20504;-75
2023/10/07 06:59:13;;;;;;;14.10;3.50;;;17.10;99.90;;;;;;5049405;28;20053;-75
2023/10/07 07:04:11;;;;;;;11.30;3.28;;;17.10;99.90;;;;;;5055101;28;20492;-75
2023/10/07 07:06:57;;;;;;;11.90;3.38;;;17.20;99.90;;;;;;5056618;28;20382;-75
2023/10/07 07:12:09;;;;;;;;;;;17.20;99.90;;;;;;5056615;28;20045;-75
2023/10/07 07:14:35;;;;;;;9.13;2.92;;;17.30;99.90;;;;;;5054545;28;19924;-75
2023/10/07 07:22:38;;;;;;;12.88;3.90;;;17.30;99.90;;;;;;5056243;28;20048;-74
2023/10/07 07:25:10;;;;;;;11.15;3.15;;;17.30;99.90;;;;;;5056300;28;20064;-75
2023/10/07 07:27:35;;;;;;;8.48;2.80;;;17.30;99.90;;;;;;5056320;28;20045;-74
2023/10/07 07:30:04;;;;;;;10.50;3.42;;;17.30;99.90;;;;;;5056122;28;20078;-75
2023/10/07 07:32:35;;;;;;;13.30;3.50;;;17.40;99.90;;;;;;5055246;28;20037;-73
2023/10/07 07:35:03;;;;;;;10.77;3.00;;;17.30;99.90;;;;;;5056071;28;20041;-74
2023/10/07 07:37:32;;;;;;;10.50;3.30;;;17.40;99.90;;;;;;5056148;28;20037;-74
2023/10/07 07:40:05;;;;;;;14.73;3.50;;;17.40;99.90;;;;;;5055882;28;20056;-74
2023/10/07 07:42:34;;;;;;;10.30;3.00;;;17.50;99.90;;;;;;5039778;28;20276;-74
2023/10/07 07:45:01;;;;;;;14.50;3.72;;;17.50;99.90;;;;;;5056175;28;20045;-75
2023/10/07 07:47:31;;;;;;;10.13;2.83;;;17.60;99.90;;;;;;5055992;28;20044;-75
2023/10/07 07:50:07;;;;;;;12.20;3.20;;;17.70;99.90;;;;;;5055799;28;20049;-75
2023/10/07 07:52:32;;;;;;;11.10;3.47;;;17.70;99.90;;;;;;5056057;28;20072;-74
2023/10/07 07:54:58;;;;;;;12.32;3.42;;;17.80;99.90;;;;;;5056934;28;20573;-75
2023/10/07 07:57:24;;;;;;;9.68;2.85;;;17.80;99.90;;;;;;5056250;28;20516;-75
2023/10/07 07:59:50;;;;;;;12.05;3.13;;;17.80;99.90;;;;;;5056794;28;20415;-75
2023/10/07 08:02:17;;;;;;;10.32;3.22;;;17.80;99.90;;;;;;5055690;28;20044;-73
2023/10/07 08:04:47;;;;;;;10.93;3.22;;;17.90;99.90;;;;;;5055833;28;20037;-74
2023/10/07 08:09:51;;;;;;;10.68;3.53;;;18.00;99.90;;;;;;5055646;28;20049;-75
2023/10/07 08:12:28;;;;;;;14.80;3.60;;;18.00;99.90;;;;;;5039092;28;20397;-74
2023/10/07 08:15:14;;;;;;;11.55;3.13;;;18.00;99.90;;;;;;5053239;28;20071;-75
2023/10/07 08:17:43;;;;;;;11.60;3.00;;;18.10;99.90;;;;;;5052467;28;20107;-75
2023/10/07 08:20:10;;;;;;;12.68;3.45;;;18.10;99.90;;;;;;5052167;28;20124;-74
2023/10/07 08:22:45;;;;;;;13.13;3.20;;;18.10;99.90;;;;;;5052864;28;20420;-75
2023/10/07 08:25:25;;;;;;;11.02;3.47;;;18.10;99.90;;;;;;5052617;28;20084;-75
2023/10/07 08:27:52;;;;;;;12.00;3.70;;;18.10;99.90;;;;;;5052536;28;20072;-74
2023/10/07 08:30:37;;;;;;;11.73;3.90;;;18.20;99.90;;;;;;5035446;28;20071;-74
2023/10/07 08:33:06;;;;;;;15.20;3.97;;;18.20;99.90;;;;;;5052335;28;20045;-73
2023/10/07 08:35:34;;;;;;;12.13;3.67;;;18.20;99.90;;;;;;5052053;28;20049;-74
2023/10/07 08:38:02;;;;;;;9.25;3.42;;;18.20;99.90;;;;;;5035892;28;20123;-74
2023/10/07 08:40:28;;;;;;;11.95;3.28;;;18.20;99.90;;;;;;5051787;28;20049;-76
2023/10/07 08:42:58;;;;;;;13.80;3.80;;;18.20;99.90;;;;;;5052186;28;20045;-73
2023/10/07 08:45:25;;;;;;;12.55;3.75;;;18.20;99.90;;;;;;5052053;28;20029;-73
2023/10/07 08:47:51;;;;;;;13.48;3.67;;;18.30;99.90;;;;;;5050504;28;20040;-74
2023/10/07 08:50:23;;;;;;;14.48;3.28;;;18.30;99.90;;;;;;5051255;28;20172;-74
2023/10/07 08:53:01;;;;;;;12.27;3.67;;;18.30;99.90;;;;;;5052161;28;20045;-75
2023/10/07 08:55:28;;;;;;;13.77;4.22;;;18.40;99.90;;;;;;5051847;28;20044;-74
2023/10/07 08:57:57;;;;;;;9.05;3.22;;;18.40;99.90;;;;;;5051788;28;20048;-75
2023/10/07 09:00:29;;;;;;;12.38;3.28;;;18.30;99.90;;;;;;5051370;28;20560;-74
2023/10/07 09:02:55;;;;;;;12.60;3.53;;;18.30;99.90;;;;;;5051729;28;20044;-75
2023/10/07 09:05:21;;;;;;;13.80;3.85;;;18.30;99.90;;;;;;5051811;28;20409;-74
2023/10/07 09:07:49;;;;;;;11.73;3.63;;;18.20;99.90;;;;;;5051650;28;20052;-75
2023/10/07 09:10:17;;;;;;;14.90;3.92;;;18.30;99.90;;;;;;5051305;28;20120;-74
2023/10/07 09:12:49;;;;;;;11.35;3.28;;;18.30;99.90;;;;;;5051659;28;20086;-75
2023/10/07 09:15:26;;;;;;;13.18;3.90;;;18.30;99.90;;;;;;5035172;28;20041;-75
2023/10/07 09:18:01;;;;;;;14.25;3.65;;;18.40;99.90;;;;;;5050889;28;20484;-74
2023/10/07 09:20:29;;;;;;;11.65;4.22;;;18.40;99.90;;;;;;5050510;28;20041;-75
2023/10/07 09:23:14;;;;;;;15.45;4.32;;;18.40;99.90;;;;;;5049773;28;20033;-75
2023/10/07 09:25:46;;;;;;;19.67;3.92;;;18.40;99.90;;;;;;5051404;28;20040;-75
2023/10/07 09:28:13;;;;;;;11.50;3.70;;;18.50;99.90;;;;;;5051187;28;20528;-75
2023/10/07 09:33:17;;;;;;;12.93;4.35;;;18.40;99.90;;;;;;5051432;28;20053;-73
2023/10/07 09:35:46;;;;;;;13.15;3.90;;;18.40;99.90;;;;;;5034843;28;20040;-74
2023/10/07 09:38:33;;;;;;;14.70;3.92;;;18.40;99.90;;;;;;5050915;28;20159;-76
2023/10/07 09:41:23;;;;;;;15.25;4.28;;;18.50;99.90;;;;;;5050894;28;20083;-74
2023/10/07 09:43:51;;;;;;;12.35;4.15;;;18.50;99.90;;;;;;5050897;28;20043;-75
2023/10/07 09:46:27;;;;;;;13.68;3.53;;;18.50;99.90;;;;;;5050004;28;20143;-74
2023/10/07 09:48:57;;;;;;;16.23;4.20;;;18.50;99.90;;;;;;5048920;28;20045;-74
2023/10/07 09:51:24;;;;;;;15.05;4.22;;;18.50;99.90;;;;;;5050499;28;20044;-75
2023/10/07 09:54:27;;;;;;;16.98;4.68;;;18.50;99.90;;;;;;5051129;28;20413;-75
2023/10/07 09:57:22;;;;;;;13.02;4.47;;;18.50;99.90;;;;;;5050916;28;20076;-75
2023/10/07 09:59:56;;;;;;;;;;;18.50;99.90;;;;;;5050745;28;20431;-75
2023/10/07 10:02:25;;;;;;;17.65;4.10;;;18.50;99.90;;;;;;5050714;28;19929;-74
2023/10/07 10:05:25;;;;;;;14.90;4.60;;;18.50;99.90;;;;;;5050306;28;20040;-76
2023/10/07 10:08:20;;;;;;;14.32;4.35;;;18.60;99.90;;;;;;5050738;28;20160;-75
2023/10/07 10:10:49;;;;;;;;;;;18.60;99.90;;;;;;5034613;28;20447;-75
2023/10/07 10:13:52;;;;;;;14.13;3.97;;;18.60;99.90;;;;;;5050065;28;19935;-75
2023/10/07 10:16:29;;;;;;;12.48;4.05;;;18.70;99.90;;;;;;5050072;28;20091;-74
2023/10/07 10:19:16;;;;;;;15.32;4.10;;;18.80;99.90;;;;;;5049375;28;20048;-74
2023/10/07 10:21:43;;;;;;;14.35;3.90;;;18.90;99.90;;;;;;5050428;28;20122;-76
2023/10/07 10:24:15;;;;;;;10.25;3.92;;;18.90;99.90;;;;;;5050275;28;20048;-77
2023/10/07 10:26:41;;;;;;;13.07;3.58;;;18.90;99.90;;;;;;5049383;28;20381;-74
2023/10/07 10:29:15;;;;;;;13.95;4.22;;;18.90;99.90;;;;;;5049702;28;20036;-76
2023/10/07 10:31:49;;;;;;;14.40;4.70;;;18.80;99.90;;;;;;5050438;28;20439;-76
2023/10/07 10:34:14;;;;;;;13.45;4.05;;;18.90;99.90;;;;;;5050355;28;20049;-75
2023/10/07 10:36:43;;;;;;;13.45;4.57;;;18.90;99.90;;;;;;5050107;28;20051;-75
2023/10/07 10:39:22;;;;;;;11.18;3.67;;;18.90;99.90;;;;;;5049139;28;20052;-76
2023/10/07 10:41:48;;;;;;;11.75;3.80;;;18.90;99.90;;;;;;5049977;28;20037;-75
2023/10/07 10:44:16;;;;;;;10.80;4.03;;;19.10;99.90;;;;;;5049698;28;20041;-75
2023/10/07 10:46:46;;;;;;;11.80;4.00;;;19.10;99.90;;;;;;5049895;28;20059;-75
2023/10/07 10:49:15;;;;;;;12.02;3.88;;;19.20;99.90;;;;;;5049697;28;20041;-77
2023/10/07 10:51:45;;;;;;;12.02;4.18;;;19.20;99.90;;;;;;5049887;28;20554;-76
2023/10/07 10:54:19;;;;;;;14.80;4.10;;;19.30;99.90;;;;;;5049734;28;20048;-75
2023/10/07 10:56:57;;;;;;;14.63;4.63;;;19.40;99.90;;;;;;5049917;28;20044;-76
2023/10/07 10:59:43;;;;;;;15.02;4.20;;;19.30;99.90;;;;;;5032647;28;20037;-76
2023/10/07 11:02:11;;;;;;;14.93;4.47;;;19.30;99.90;;;;;;5049552;28;20041;-76
2023/10/07 11:04:37;;;;;;;14.32;4.07;;;19.20;99.90;;;;;;5049867;28;20037;-76
2023/10/07 11:07:07;;;;;;;11.40;3.80;;;19.20;99.90;;;;;;5049660;28;20042;-76
2023/10/07 11:09:37;;;;;;;12.18;4.05;;;19.20;99.90;;;;;;5049375;28;20079;-76
2023/10/07 11:12:09;;;;;;;14.00;4.18;;;19.10;99.90;;;;;;5049681;28;20048;-75
2023/10/07 11:14:37;;;;;;;11.98;4.10;;;19.10;99.90;;;;;;5049797;28;20033;-75
2023/10/07 11:17:03;;;;;;;16.25;4.57;;;19.10;99.90;;;;;;5049639;28;20083;-76
2023/10/07 11:19:30;;;;;;;11.63;3.65;;;19.00;99.90;;;;;;5049253;28;20484;-75
2023/10/07 11:21:57;;;;;;;11.95;3.80;;;18.90;99.90;;;;;;5033056;28;20033;-77
2023/10/07 11:24:28;;;;;;;11.70;3.75;;;18.80;99.90;;;;;;5049440;28;20052;-77
2023/10/07 11:26:56;;;;;;;13.20;3.83;;;18.70;99.90;;;;;;5049553;28;20033;-74
2023/10/07 11:29:27;;;;;;;14.25;5.00;;;18.70;99.90;;;;;;5049274;28;20045;-74
2023/10/07 11:32:06;;;;;;;14.27;4.38;;;18.60;99.90;;;;;;5049661;28;20110;-76
2023/10/07 11:34:39;;;;;;;12.93;4.53;;;18.70;99.90;;;;;;5049479;28;20045;-76
2023/10/07 11:37:13;;;;;;;16.67;3.87;;;18.70;99.90;;;;;;5032778;28;20115;-75
2023/10/07 11:39:46;;;;;;;16.58;4.53;;;18.70;99.90;;;;;;5049362;28;20644;-76
2023/10/07 11:42:21;;;;;;;11.70;3.97;;;18.70;99.90;;;;;;5049337;28;20041;-76
2023/10/07 11:44:54;;;;;;;15.60;4.57;;;18.70;99.90;;;;;;5032668;28;20037;-76
2023/10/07 11:47:20;;;;;;;12.55;4.22;;;18.70;99.90;;;;;;5049223;28;20033;-75
2023/10/07 11:49:46;;;;;;;15.43;4.35;;;18.80;99.90;;;;;;5049048;28;20120;-75
2023/10/07 11:52:14;;;;;;;13.68;4.55;;;18.90;99.90;;;;;;5053368;28;20496;-75
2023/10/07 11:54:40;;;;;;;13.20;4.40;;;19.00;99.90;;;;;;5053068;28;20037;-77
2023/10/07 11:57:06;;;;;;;15.00;4.30;;;19.10;99.90;;;;;;5052909;28;20055;-74
2023/10/07 11:59:36;;;;;;;15.48;4.28;;;19.10;99.90;;;;;;5052627;28;20047;-76
2023/10/07 12:02:09;;;;;;;14.23;4.13;;;19.00;99.90;;;;;;5053191;28;20396;-75
2023/10/07 12:04:38;;;;;;;;;;;18.90;99.90;;;;;;5053426;28;20036;-75
2023/10/07 12:07:06;;;;;;;10.32;4.00;;;18.80;99.90;;;;;;5052733;28;19916;-75
2023/10/07 12:09:32;;;;;;;10.82;3.92;;;18.80;99.90;;;;;;5052573;28;20119;-75
2023/10/07 12:12:02;;;;;;;11.93;5.03;;;18.80;99.90;;;;;;5052866;28;20041;-75
2023/10/07 12:14:28;;;;;;;13.88;4.30;;;18.70;99.90;;;;;;5052601;28;20043;-75
2023/10/07 12:16:55;;;;;;;13.50;3.75;;;18.70;99.90;;;;;;5052669;28;20076;-76
2023/10/07 12:19:21;;;;;;;10.15;3.53;;;18.70;99.90;;;;;;5051281;28;20090;-75
2023/10/07 12:21:47;;;;;;;13.07;3.63;;;18.70;99.90;;;;;;5035563;28;20120;-74
2023/10/07 12:24:16;;;;;;;12.15;4.00;;;18.70;99.90;;;;;;5052580;28;20453;-76
2023/10/07 12:26:45;;;;;;;11.35;3.83;;;18.60;99.90;;;;;;5052646;28;20457;-75
2023/10/07 12:29:11;;;;;;;15.27;4.25;;;18.60;99.90;;;;;;5051982;28;20370;-76
2023/10/07 12:31:36;;;;;;;14.10;4.57;;;18.50;99.90;;;;;;5052652;28;20136;-75
2023/10/07 12:34:02;;;;;;;12.50;4.03;;;18.50;99.90;;;;;;5052247;28;20049;-75
2023/10/07 12:36:30;;;;;;;13.35;3.88;;;18.60;99.90;;;;;;5035580;28;20041;-75
2023/10/07 12:38:56;;;;;;;17.52;3.85;;;18.60;99.90;;;;;;5051853;28;20120;-74
2023/10/07 12:41:21;;;;;;;15.23;4.00;;;18.70;99.90;;;;;;5052315;28;20128;-74
2023/10/07 12:43:47;;;;;;;16.35;4.75;;;18.70;99.90;;;;;;5035414;28;20059;-74
2023/10/07 12:46:14;;;;;;;14.20;3.97;;;18.70;99.90;;;;;;5052402;28;20040;-74
2023/10/07 12:48:40;;;;;;;15.88;4.00;;;18.80;99.90;;;;;;5051658;28;20041;-75
2023/10/07 12:51:08;;;;;;;11.30;3.80;;;18.80;99.90;;;;;;5052012;28;20061;-74
2023/10/07 12:53:34;;;;;;;13.77;4.18;;;18.80;99.90;;;;;;5052237;28;20080;-74
2023/10/07 12:56:12;;;;;;;11.18;4.38;;;18.80;99.90;;;;;;5035491;28;20095;-74
2023/10/07 12:58:39;;;;;;;11.32;4.00;;;18.70;99.90;;;;;;5051494;28;20094;-74
2023/10/07 13:01:11;;;;;;;10.13;3.85;;;18.70;99.90;;;;;;5051306;28;20508;-75
2023/10/07 13:03:39;;;;;;;9.95;3.90;;;18.60;99.90;;;;;;5051967;28;20047;-74
2023/10/07 13:06:08;;;;;;;16.50;4.20;;;18.60;99.90;;;;;;5051880;28;20047;-75
2023/10/07 13:08:33;;;;;;;15.88;3.95;;;18.60;99.90;;;;;;5051203;28;20087;-74
2023/10/07 13:11:00;;;;;;;12.35;3.92;;;18.60;99.90;;;;;;5051611;28;20074;-75
2023/10/07 13:13:29;;;;;;;14.23;4.00;;;18.50;99.90;;;;;;5051823;28;20480;-74
2023/10/07 13:15:56;;;;;;;13.30;4.30;;;18.60;99.90;;;;;;5051770;28;20407;-75
2023/10/07 13:18:22;;;;;;;9.20;3.85;;;18.50;99.90;;;;;;5051528;28;20450;-74
2023/10/07 13:20:47;;;;;;;12.05;4.28;;;18.50;99.90;;;;;;5051193;28;20049;-74
2023/10/07 13:23:13;;;;;;;13.25;4.40;;;18.40;99.90;;;;;;5051277;28;20041;-75
2023/10/07 13:25:39;;;;;;;12.80;4.20;;;18.50;99.90;;;;;;5051416;28;20397;-75
2023/10/07 13:28:09;;;;;;;15.90;4.25;;;18.40;99.90;;;;;;5051228;28;20330;-74
2023/10/07 13:30:35;;;;;;;13.48;3.97;;;18.30;99.90;;;;;;5051075;28;20044;-75
2023/10/07 13:33:01;;;;;;;11.70;3.65;;;18.30;99.90;;;;;;5050049;28;20447;-74